createdAt,value
2022-12-22T00:02:15.669Z,100074.84
2022-12-22T00:05:01.886Z,100073.44
2022-12-22T00:07:46.832Z,100070.63
2022-12-22T00:10:32.096Z,100073.31
2022-12-22T00:13:18.339Z,100064.84
2022-12-22T00:16:03.042Z,100067.72
2022-12-22T00:18:48.115Z,100060.44
2022-12-22T00:21:33.333Z,100060.88
2022-12-22T00:24:18.072Z,100061.22
2022-12-22T00:27:03.718Z,100061.72
2022-12-22T00:29:55.540Z,100056.94
2022-12-22T00:32:41.454Z,100051.94
2022-12-22T00:35:31.273Z,100047.06
2022-12-22T00:38:16.262Z,100041.38
2022-12-22T00:41:01.109Z,100034.38
2022-12-22T00:43:46.037Z,100031.69
2022-12-22T00:46:35.474Z,100025.69
2022-12-22T00:49:20.797Z,100021.22
2022-12-22T00:52:05.584Z,100022.53
2022-12-22T00:54:50.855Z,100010.47
2022-12-22T00:57:37.782Z,100011.72
2022-12-22T01:00:24.572Z,100019.75
2022-12-22T01:03:11.250Z,100013.22
2022-12-22T01:05:56.409Z,100012.44
2022-12-22T01:08:41.156Z,100011.25
2022-12-22T01:11:26.300Z,100014.97
2022-12-22T01:14:10.947Z,100011.91
2022-12-22T01:16:55.709Z,100011.00
2022-12-22T01:19:41.966Z,100003.41
2022-12-22T01:22:29.064Z,99995.53
2022-12-22T01:25:13.837Z,100006.44
2022-12-22T01:27:58.518Z,99996.19
2022-12-22T01:30:43.372Z,100002.81
2022-12-22T01:33:30.154Z,99997.97
2022-12-22T01:36:16.682Z,99999.25
2022-12-22T01:39:01.326Z,99994.81
2022-12-22T01:41:46.054Z,99977.03
2022-12-22T01:44:33.045Z,99972.97
2022-12-22T01:47:59.521Z,99977.28
2022-12-22T01:50:47.826Z,99975.63
2022-12-22T01:53:37.968Z,99968.81
2022-12-22T01:56:23.829Z,99979.25
2022-12-22T01:59:11.095Z,99964.22
2022-12-22T02:01:57.244Z,99962.38
2022-12-22T02:04:45.157Z,99960.44
2022-12-22T02:07:39.421Z,99953.91
2022-12-22T02:10:37.925Z,99955.97
2022-12-22T02:13:33.697Z,99946.59
2022-12-22T02:16:20.554Z,99949.94
2022-12-22T02:19:10.513Z,99937.81
2022-12-22T02:22:03.122Z,99937.19
2022-12-22T02:24:52.715Z,99943.69
2022-12-22T02:27:39.497Z,99939.00
2022-12-22T02:30:26.222Z,99934.78
2022-12-22T02:33:12.821Z,99934.59
2022-12-22T02:36:03.967Z,99939.78
2022-12-22T02:38:59.325Z,99937.66
2022-12-22T02:41:52.241Z,99939.06
2022-12-22T02:44:44.119Z,99934.50
2022-12-22T02:47:36.433Z,99935.41
2022-12-22T02:50:23.729Z,99929.84
2022-12-22T02:53:09.492Z,99924.34
2022-12-22T02:55:54.274Z,99926.66
2022-12-22T02:58:39.679Z,99924.59
2022-12-22T03:01:26.274Z,99920.47
2022-12-22T03:04:11.150Z,99919.47
2022-12-22T03:06:55.787Z,99907.56
2022-12-22T03:09:40.583Z,99900.75
2022-12-22T03:12:25.351Z,99904.88
2022-12-22T03:15:10.055Z,99899.63
2022-12-22T03:17:56.594Z,99899.31
2022-12-22T03:20:41.257Z,99897.75
2022-12-22T03:23:26.678Z,99894.34
2022-12-22T03:25:54.463Z,99879.13
2022-12-22T03:28:22.813Z,99885.19
2022-12-22T03:30:58.340Z,99875.31
2022-12-22T03:33:27.314Z,99873.88
2022-12-22T03:35:54.748Z,99871.81
2022-12-22T03:38:22.143Z,99874.50
2022-12-22T03:40:49.718Z,99875.00
2022-12-22T03:43:35.462Z,99869.38
2022-12-22T03:46:26.040Z,99870.28
2022-12-22T03:49:13.129Z,99866.31
2022-12-22T03:51:43.429Z,99860.25
2022-12-22T03:54:12.125Z,99860.97
2022-12-22T03:56:39.809Z,99850.19
2022-12-22T03:59:07.616Z,99847.28
2022-12-22T04:01:38.860Z,99843.56
2022-12-22T04:04:07.854Z,99842.41
2022-12-22T04:06:35.243Z,99843.56
2022-12-22T04:09:02.811Z,99835.28
2022-12-22T04:11:47.798Z,99833.53
2022-12-22T04:14:15.159Z,99841.03
2022-12-22T04:16:42.704Z,99831.16
2022-12-22T04:19:11.938Z,99833.16
2022-12-22T04:21:39.473Z,99823.63
2022-12-22T04:24:07.555Z,99825.81
2022-12-22T04:26:35.462Z,99825.97
2022-12-22T04:29:02.910Z,99827.34
2022-12-22T04:31:31.143Z,99826.94
2022-12-22T04:33:58.499Z,99823.16
2022-12-22T04:36:27.169Z,99819.09
2022-12-22T04:38:54.506Z,99811.22
2022-12-22T04:41:21.902Z,99813.97
2022-12-22T04:43:49.249Z,99809.03
2022-12-22T04:46:16.675Z,99794.53
2022-12-22T04:48:44.011Z,99785.41
2022-12-22T04:51:11.575Z,99789.59
2022-12-22T04:53:40.226Z,99785.13
2022-12-22T04:56:08.853Z,99780.34
2022-12-22T04:58:36.371Z,99775.50
2022-12-22T05:01:11.673Z,99767.13
2022-12-22T05:03:39.105Z,99768.50
2022-12-22T05:06:06.915Z,99767.84
2022-12-22T05:08:34.359Z,99768.25
2022-12-22T05:11:03.677Z,99758.13
2022-12-22T05:13:31.764Z,99762.50
2022-12-22T05:16:05.002Z,99755.38
2022-12-22T05:18:32.461Z,99756.44
2022-12-22T05:20:59.826Z,99751.19
2022-12-22T05:23:27.196Z,99750.13
2022-12-22T05:25:54.558Z,99747.53
2022-12-22T05:28:23.278Z,99734.66
2022-12-22T05:30:50.662Z,99735.13
2022-12-22T05:33:18.088Z,99720.41
2022-12-22T05:35:45.507Z,99727.44
2022-12-22T05:38:13.192Z,99725.91
2022-12-22T05:40:40.578Z,99721.88
2022-12-22T05:43:07.986Z,99725.91
2022-12-22T05:45:36.659Z,99712.31
2022-12-22T05:48:03.997Z,99720.03
2022-12-22T05:50:32.573Z,99721.88
2022-12-22T05:52:59.975Z,99723.97
2022-12-22T05:55:27.759Z,99728.59
2022-12-22T05:57:55.182Z,99734.31
2022-12-22T06:00:23.650Z,99735.69
2022-12-22T06:02:52.485Z,99729.69
2022-12-22T06:05:20.144Z,99723.41
2022-12-22T06:07:47.509Z,99718.75
2022-12-22T06:10:15.169Z,99722.09
2022-12-22T06:12:43.335Z,99707.66
2022-12-22T06:15:12.861Z,99707.41
2022-12-22T06:17:44.828Z,99706.41
2022-12-22T06:20:15.175Z,99711.72
2022-12-22T06:22:42.564Z,99703.06
2022-12-22T06:25:17.323Z,99702.50
2022-12-22T06:27:45.879Z,99704.19
2022-12-22T06:30:13.879Z,99693.69
2022-12-22T06:32:41.315Z,99700.34
2022-12-22T06:35:09.818Z,99688.38
2022-12-22T06:37:38.618Z,99690.66
2022-12-22T06:40:09.388Z,99695.66
2022-12-22T06:42:54.300Z,99684.53
2022-12-22T06:45:21.671Z,99686.78
2022-12-22T06:47:49.002Z,99693.75
2022-12-22T06:50:16.458Z,99695.66
2022-12-22T06:52:45.475Z,99692.47
2022-12-22T06:55:12.998Z,99686.78
2022-12-22T06:57:40.349Z,99692.25
2022-12-22T07:00:09.295Z,99708.06
2022-12-22T07:02:36.973Z,99708.34
2022-12-22T07:05:05.097Z,99700.56
2022-12-22T07:07:32.490Z,99708.25
2022-12-22T07:10:03.905Z,99704.38
2022-12-22T07:12:31.261Z,99694.81
2022-12-22T07:14:58.609Z,99686.44
2022-12-22T07:17:26.303Z,99698.63
2022-12-22T07:19:53.659Z,99697.66
2022-12-22T07:22:25.821Z,99701.34
2022-12-22T07:24:57.074Z,99699.19
2022-12-22T07:27:25.792Z,99700.28
2022-12-22T07:29:53.114Z,99697.31
2022-12-22T07:32:20.472Z,99704.03
2022-12-22T07:34:47.789Z,99695.28
2022-12-22T07:37:15.161Z,99696.59
2022-12-22T07:39:42.546Z,99699.34
2022-12-22T07:42:29.927Z,99691.94
2022-12-22T07:44:58.617Z,99688.69
2022-12-22T07:47:30.075Z,99686.28
2022-12-22T07:50:20.151Z,99678.25
2022-12-22T07:52:47.497Z,99683.22
2022-12-22T07:55:15.075Z,99684.78
2022-12-22T07:57:42.462Z,99693.31
2022-12-22T08:00:12.539Z,99690.00
2022-12-22T08:02:40.051Z,99692.50
2022-12-22T08:05:09.624Z,99686.72
2022-12-22T08:07:37.389Z,99697.38
2022-12-22T08:10:08.453Z,99703.88
2022-12-22T08:12:35.860Z,99700.50
2022-12-22T08:15:03.273Z,99706.16
2022-12-22T08:17:32.037Z,99708.25
2022-12-22T08:19:59.694Z,99712.47
2022-12-22T08:22:30.574Z,99706.28
2022-12-22T08:24:58.468Z,99707.13
2022-12-22T08:27:29.085Z,99698.91
2022-12-22T08:29:59.150Z,99689.28
2022-12-22T08:32:26.637Z,99685.00
2022-12-22T08:34:55.502Z,99686.06
2022-12-22T08:37:25.907Z,99675.66
2022-12-22T08:39:55.572Z,99680.53
2022-12-22T08:42:23.600Z,99682.84
2022-12-22T08:44:53.112Z,99695.50
2022-12-22T08:47:21.078Z,99697.91
2022-12-22T08:49:48.664Z,99692.28
2022-12-22T08:52:19.101Z,99691.97
2022-12-22T08:54:46.838Z,99689.28
2022-12-22T08:57:14.305Z,99696.00
2022-12-22T08:59:41.694Z,99693.38
2022-12-22T09:02:09.146Z,99695.28
2022-12-22T09:04:38.159Z,99697.13
2022-12-22T09:07:05.516Z,99701.94
2022-12-22T09:09:34.979Z,99709.72
2022-12-22T09:12:03.038Z,99710.25
2022-12-22T09:14:32.295Z,99703.91
2022-12-22T09:16:59.753Z,99714.41
2022-12-22T09:19:27.224Z,99706.47
2022-12-22T09:21:55.510Z,99711.41
2022-12-22T09:24:22.933Z,99699.69
2022-12-22T09:26:51.614Z,99711.72
2022-12-22T09:29:18.969Z,99704.84
2022-12-22T09:31:46.951Z,99699.19
2022-12-22T09:34:18.140Z,99696.81
2022-12-22T09:36:47.479Z,99694.88
2022-12-22T09:39:15.833Z,99706.34
2022-12-22T09:41:46.519Z,99692.97
2022-12-22T09:44:24.499Z,99695.91
2022-12-22T09:46:52.385Z,99695.91
2022-12-22T09:49:20.808Z,99693.78
2022-12-22T09:51:50.209Z,99690.06
2022-12-22T09:54:17.567Z,99700.28
2022-12-22T09:56:45.225Z,99688.44
2022-12-22T09:59:14.291Z,99690.94
2022-12-22T10:02:01.219Z,99697.00
2022-12-22T10:04:39.968Z,99689.91
2022-12-22T10:07:17.502Z,99700.03
2022-12-22T10:09:50.147Z,99703.75
2022-12-22T10:12:21.912Z,99702.72
2022-12-22T10:14:51.018Z,99706.72
2022-12-22T10:17:22.516Z,99703.31
2022-12-22T10:19:51.415Z,99706.78
2022-12-22T10:22:27.791Z,99705.22
2022-12-22T10:24:55.371Z,99701.75
2022-12-22T10:27:28.617Z,99694.69
2022-12-22T10:30:22.327Z,99685.31
2022-12-22T10:33:06.170Z,99684.50
2022-12-22T10:35:55.107Z,99683.94
2022-12-22T10:38:25.660Z,99680.28
2022-12-22T10:41:01.826Z,99694.50
2022-12-22T10:43:31.916Z,99694.50
2022-12-22T10:46:01.090Z,99676.88
2022-12-22T10:48:29.701Z,99685.78
2022-12-22T10:50:57.752Z,99685.03
2022-12-22T10:53:42.184Z,99691.69
2022-12-22T10:56:14.094Z,99694.72
2022-12-22T10:58:50.217Z,99690.94
2022-12-22T11:01:27.104Z,99699.31
2022-12-22T11:03:54.686Z,99698.75
2022-12-22T11:06:22.145Z,99701.69
2022-12-22T11:08:51.882Z,99698.75
2022-12-22T11:11:38.913Z,99707.16
2022-12-22T11:14:23.532Z,99706.09
2022-12-22T11:16:55.281Z,99706.34
2022-12-22T11:19:42.548Z,99699.97
2022-12-22T11:22:19.039Z,99702.34
2022-12-22T11:24:53.422Z,99699.38
2022-12-22T11:27:29.501Z,99708.25
2022-12-22T11:30:04.783Z,99708.78
2022-12-22T11:32:52.538Z,99711.75
2022-12-22T11:35:26.942Z,99716.03
2022-12-22T11:37:59.800Z,99716.81
2022-12-22T11:40:34.045Z,99724.63
2022-12-22T11:43:18.929Z,99728.63
2022-12-22T11:45:55.488Z,99723.88
2022-12-22T11:48:36.639Z,99726.53
2022-12-22T11:51:09.055Z,99726.00
2022-12-22T11:53:54.058Z,99728.69
2022-12-22T11:56:24.032Z,99719.81
2022-12-22T11:59:15.839Z,99729.19
2022-12-22T12:02:05.839Z,99722.22
2022-12-22T12:04:47.932Z,99729.41
2022-12-22T12:07:25.910Z,99730.09
2022-12-22T12:10:00.011Z,99742.72
2022-12-22T12:12:30.532Z,99750.75
2022-12-22T12:15:07.465Z,99754.69
2022-12-22T12:17:44.951Z,99758.53
2022-12-22T12:20:30.352Z,99760.97
2022-12-22T12:23:08.097Z,99767.50
2022-12-22T12:25:40.238Z,99755.41
2022-12-22T12:28:14.671Z,99758.44
2022-12-22T12:30:51.059Z,99754.66
2022-12-22T12:33:20.407Z,99757.63
2022-12-22T12:35:56.267Z,99746.84
2022-12-22T12:41:23.707Z,99757.19
2022-12-22T12:43:53.339Z,99763.56
2022-12-22T12:46:46.975Z,99768.91
2022-12-22T12:49:50.589Z,99768.03
2022-12-22T12:52:19.463Z,99763.25
2022-12-22T12:54:47.902Z,99774.28
2022-12-22T12:57:27.366Z,99778.44
2022-12-22T12:59:55.819Z,99784.94
2022-12-22T13:02:34.715Z,99792.72
2022-12-22T13:05:28.442Z,99792.72
2022-12-22T13:08:08.124Z,99802.19
2022-12-22T13:10:37.365Z,99813.28
2022-12-22T13:13:05.247Z,99820.44
2022-12-22T13:15:34.140Z,99821.78
2022-12-22T13:18:02.495Z,99824.53
2022-12-22T13:20:32.551Z,99818.13
2022-12-22T13:23:01.463Z,99805.59
2022-12-22T13:25:43.312Z,99819.81
2022-12-22T13:28:16.583Z,99816.31
2022-12-22T13:30:47.211Z,99820.06
2022-12-22T13:33:16.577Z,99835.41
2022-12-22T13:35:47.730Z,99832.63
2022-12-22T13:38:30.505Z,99838.38
2022-12-22T13:40:59.964Z,99846.34
2022-12-22T13:43:28.147Z,99842.03
2022-12-22T13:45:57.030Z,99841.53
2022-12-22T13:48:26.825Z,99843.09
2022-12-22T13:50:56.105Z,99848.50
2022-12-22T13:54:06.501Z,99845.53
2022-12-22T13:56:21.750Z,99845.47
2022-12-22T13:58:54.283Z,99838.50
2022-12-22T14:01:21.775Z,99835.25
2022-12-22T14:04:06.921Z,99838.75
2022-12-22T14:06:36.269Z,99846.28
2022-12-22T14:09:15.635Z,99851.66
2022-12-22T14:11:51.518Z,99857.19
2022-12-22T14:14:22.978Z,99837.94
2022-12-22T14:16:52.203Z,99844.41
2022-12-22T14:19:21.641Z,99851.91
2022-12-22T14:21:52.235Z,99848.75
2022-12-22T14:24:21.850Z,99854.94
2022-12-22T14:26:51.250Z,99855.94
2022-12-22T14:29:20.497Z,99851.66
2022-12-22T14:31:58.696Z,99850.59
2022-12-22T14:34:28.504Z,99852.88
2022-12-22T14:36:56.034Z,99851.06
2022-12-22T14:39:25.654Z,99856.72
2022-12-22T14:41:55.685Z,99858.56
2022-12-22T14:44:25.503Z,99858.91
2022-12-22T14:47:17.239Z,99858.09
2022-12-22T14:49:46.338Z,99851.78
2022-12-22T14:52:20.062Z,99863.53
2022-12-22T14:54:48.419Z,99869.09
2022-12-22T14:57:21.483Z,99880.34
2022-12-22T14:59:59.766Z,99876.84
2022-12-22T15:02:36.663Z,99877.19
2022-12-22T15:05:13.217Z,99872.88
2022-12-22T15:10:37.855Z,99889.22
2022-12-22T15:13:11.865Z,99888.44
2022-12-22T15:15:39.587Z,99887.09
2022-12-22T15:18:07.006Z,99887.13
2022-12-22T15:20:39.443Z,99890.13
2022-12-22T15:23:11.607Z,99901.47
2022-12-22T15:25:39.050Z,99898.78
2022-12-22T15:28:07.778Z,99905.16
2022-12-22T15:30:35.401Z,99907.25
2022-12-22T15:33:02.990Z,99909.69
2022-12-22T15:35:31.987Z,99914.06
2022-12-22T15:37:59.592Z,99929.38
2022-12-22T15:40:28.105Z,99930.16
2022-12-22T15:42:55.650Z,99937.59
2022-12-22T15:45:24.454Z,99948.16
2022-12-22T15:47:53.612Z,99940.47
2022-12-22T15:50:23.995Z,99938.09
2022-12-22T15:52:53.721Z,99931.63
2022-12-22T15:55:21.789Z,99938.16
2022-12-22T15:57:51.107Z,99944.00
2022-12-22T16:00:20.186Z,99942.34
2022-12-22T16:02:49.209Z,99937.00
2022-12-22T16:05:17.319Z,99942.78
2022-12-22T16:07:45.423Z,99937.66
2022-12-22T16:10:23.509Z,99931.78
2022-12-22T16:12:54.589Z,99954.22
2022-12-22T16:15:22.356Z,99945.09
2022-12-22T16:17:52.957Z,99953.59
2022-12-22T16:20:20.962Z,99950.53
2022-12-22T16:22:49.263Z,99950.84
2022-12-22T16:25:19.911Z,99954.66
2022-12-22T16:27:49.270Z,99954.50
2022-12-22T16:30:19.498Z,99957.81
2022-12-22T16:32:47.111Z,99952.13
2022-12-22T16:35:18.163Z,99951.16
2022-12-22T16:37:46.068Z,99950.94
2022-12-22T16:40:13.868Z,99956.03
2022-12-22T16:45:30.995Z,99953.78
2022-12-22T16:47:59.864Z,99958.66
2022-12-22T16:50:32.697Z,99951.69
2022-12-22T16:53:00.872Z,99953.44
2022-12-22T16:55:28.665Z,99958.66
2022-12-22T16:57:56.040Z,99952.81
2022-12-22T17:00:25.002Z,99947.28
2022-12-22T17:02:55.013Z,99951.25
2022-12-22T17:05:27.684Z,99948.84
2022-12-22T17:07:57.162Z,99947.63
2022-12-22T17:10:25.004Z,99946.78
2022-12-22T17:12:54.062Z,99947.47
2022-12-22T17:15:23.035Z,99948.91
2022-12-22T17:17:50.560Z,99950.84
2022-12-22T17:20:19.372Z,99945.34
2022-12-22T17:22:48.629Z,99949.31
2022-12-22T17:25:20.584Z,99950.31
2022-12-22T17:27:48.143Z,99947.28
2022-12-22T17:30:18.329Z,99945.50
2022-12-22T17:32:46.028Z,99939.53
2022-12-22T17:35:14.742Z,99936.69
2022-12-22T17:37:42.666Z,99945.22
2022-12-22T17:40:15.502Z,99936.25
2022-12-22T17:42:44.208Z,99937.72
2022-12-22T17:45:14.377Z,99931.66
2022-12-22T17:47:43.030Z,99932.44
2022-12-22T17:50:13.222Z,99931.06
2022-12-22T17:52:41.241Z,99928.47
2022-12-22T17:55:18.581Z,99930.66
2022-12-22T17:57:47.259Z,99926.53
2022-12-22T18:00:19.189Z,99920.44
2022-12-22T18:02:46.757Z,99908.78
2022-12-22T18:05:15.112Z,99908.72
2022-12-22T18:07:43.963Z,99907.34
2022-12-22T18:10:23.434Z,99906.75
2022-12-22T18:12:52.633Z,99908.88
2022-12-22T18:15:20.798Z,99905.63
2022-12-22T18:17:48.419Z,99904.16
2022-12-22T18:20:16.495Z,99900.09
2022-12-22T18:22:44.418Z,99902.31
2022-12-22T18:25:18.241Z,99900.50
2022-12-22T18:27:46.403Z,99915.09
2022-12-22T18:30:21.063Z,99917.97
2022-12-22T18:32:48.655Z,99912.94
2022-12-22T18:35:16.655Z,99925.56
2022-12-22T18:37:44.229Z,99922.00
2022-12-22T18:40:28.315Z,99919.63
2022-12-22T18:42:56.926Z,99925.72
2022-12-22T18:45:27.629Z,99924.50
2022-12-22T18:47:55.570Z,99931.25
2022-12-22T18:50:24.594Z,99927.16
2022-12-22T18:52:52.758Z,99920.03
2022-12-22T18:55:21.473Z,99924.69
2022-12-22T18:57:51.142Z,99928.56
2022-12-22T19:00:20.695Z,99918.34
2022-12-22T19:02:51.326Z,99914.44
2022-12-22T19:05:21.161Z,99917.06
2022-12-22T19:07:48.821Z,99913.56
2022-12-22T19:10:17.397Z,99920.38
2022-12-22T19:12:45.543Z,99918.59
2022-12-22T19:15:21.661Z,99909.91
2022-12-22T19:17:52.120Z,99918.03
2022-12-22T19:20:21.324Z,99913.00
2022-12-22T19:22:49.554Z,99903.19
2022-12-22T19:25:18.461Z,99900.69
2022-12-22T19:27:47.099Z,99896.78
2022-12-22T19:30:17.157Z,99902.38
2022-12-22T19:32:47.025Z,99895.25
2022-12-22T19:35:18.438Z,99891.75
2022-12-22T19:37:46.243Z,99901.47
2022-12-22T19:40:14.478Z,99906.59
2022-12-22T19:42:42.790Z,99894.84
2022-12-22T19:45:21.390Z,99892.34
2022-12-22T19:47:49.429Z,99892.41
2022-12-22T19:50:19.798Z,99897.69
2022-12-22T19:52:47.216Z,99885.84
2022-12-22T19:55:14.766Z,99891.19
2022-12-22T19:57:43.403Z,99896.41
2022-12-22T20:00:18.658Z,99886.41
2022-12-22T20:02:46.844Z,99884.25
2022-12-22T20:05:29.849Z,99885.28
2022-12-22T20:07:58.784Z,99885.13
2022-12-22T20:10:27.697Z,99891.06
2022-12-22T20:12:56.621Z,99887.31
2022-12-22T20:15:26.584Z,99899.38
2022-12-22T20:17:55.054Z,99888.78
2022-12-22T20:20:26.697Z,99886.91
2022-12-22T20:22:55.859Z,99888.69
2022-12-22T20:25:25.554Z,99893.53
2022-12-22T20:27:54.358Z,99895.44
2022-12-22T20:30:23.545Z,99889.09
2022-12-22T20:32:51.002Z,99883.34
2022-12-22T20:35:18.832Z,99885.94
2022-12-22T20:37:47.545Z,99878.00
2022-12-22T20:40:22.600Z,99882.03
2022-12-22T20:42:50.123Z,99877.09
2022-12-22T20:45:17.917Z,99877.19
2022-12-22T20:47:45.836Z,99873.13
2022-12-22T20:50:20.884Z,99869.75
2022-12-22T20:52:49.900Z,99865.56
2022-12-22T20:55:18.757Z,99871.75
2022-12-22T20:57:47.523Z,99869.31
2022-12-22T21:00:20.048Z,99871.28
2022-12-22T21:02:47.807Z,99863.88
2022-12-22T21:05:15.778Z,99860.66
2022-12-22T21:07:43.885Z,99866.16
2022-12-22T21:10:21.633Z,99866.94
2022-12-22T21:12:49.244Z,99867.69
2022-12-22T21:15:18.751Z,99865.41
2022-12-22T21:17:47.480Z,99862.03
2022-12-22T21:20:18.889Z,99861.44
2022-12-22T21:22:46.218Z,99854.94
2022-12-22T21:25:14.273Z,99850.56
2022-12-22T21:27:44.820Z,99847.13
2022-12-22T21:30:17.427Z,99845.16
2022-12-22T21:32:45.165Z,99835.91
2022-12-22T21:35:16.705Z,99825.19
2022-12-22T21:37:46.083Z,99834.28
2022-12-22T21:40:18.677Z,99832.91
2022-12-22T21:42:47.437Z,99835.44
2022-12-22T21:45:15.843Z,99841.94
2022-12-22T21:47:43.482Z,99836.00
2022-12-22T21:50:19.165Z,99831.84
2022-12-22T21:52:50.085Z,99827.56
2022-12-22T21:55:22.222Z,99829.75
2022-12-22T21:57:51.147Z,99838.56
2022-12-22T22:00:20.388Z,99835.72
2022-12-22T22:02:48.522Z,99830.63
2022-12-22T22:05:24.704Z,99826.31
2022-12-22T22:07:52.271Z,99823.59
2022-12-22T22:10:22.512Z,99824.66
2022-12-22T22:12:51.300Z,99819.69
2022-12-22T22:15:19.107Z,99815.94
2022-12-22T22:17:46.551Z,99818.94
2022-12-22T22:20:16.116Z,99818.53
2022-12-22T22:22:43.529Z,99823.16
2022-12-22T22:25:11.541Z,99810.34
2022-12-22T22:27:42.990Z,99810.91
2022-12-22T22:30:18.968Z,99808.97
2022-12-22T22:32:46.509Z,99816.75
2022-12-22T22:35:14.514Z,99811.59
2022-12-22T22:37:45.577Z,99807.28
2022-12-22T22:40:15.659Z,99799.34
2022-12-22T22:42:43.101Z,99799.88
2022-12-22T22:45:12.211Z,99789.63
2022-12-22T22:47:41.071Z,99791.53
2022-12-22T22:50:09.483Z,99791.78
2022-12-22T22:52:37.620Z,99783.53
2022-12-22T22:55:05.549Z,99787.19
2022-12-22T22:57:33.183Z,99776.31
2022-12-22T23:00:00.634Z,99777.56
2022-12-22T23:02:28.137Z,99768.47
2022-12-22T23:04:57.002Z,99770.00
2022-12-22T23:07:24.429Z,99773.25
2022-12-22T23:09:51.761Z,99776.44
2022-12-22T23:12:19.151Z,99773.41
2022-12-22T23:14:46.547Z,99775.56
2022-12-22T23:17:13.967Z,99767.72
2022-12-22T23:19:41.315Z,99767.97
2022-12-22T23:22:10.158Z,99777.19
2022-12-22T23:24:37.795Z,99767.69
2022-12-22T23:27:05.197Z,99774.97
2022-12-22T23:29:32.578Z,99776.34
2022-12-22T23:32:06.390Z,99768.97
2022-12-22T23:34:34.077Z,99770.13
2022-12-22T23:37:03.066Z,99764.47
2022-12-22T23:39:31.767Z,99754.06
2022-12-22T23:41:59.205Z,99759.41
2022-12-22T23:44:26.820Z,99755.91
2022-12-22T23:46:54.324Z,99751.63
2022-12-22T23:49:21.796Z,99745.06
2022-12-22T23:51:49.189Z,99749.53
2022-12-22T23:54:16.536Z,99749.34
2022-12-22T23:56:45.249Z,99747.41
2022-12-22T23:59:12.665Z,99754.06
